createdAt,value
2018-01-15T00:00:26.767Z,12.50
2018-01-15T00:02:54.458Z,10.77
2018-01-15T00:05:22.106Z,9.05
2018-01-15T00:07:50.479Z,12.07
2018-01-15T00:10:18.133Z,9.90
2018-01-15T00:12:46.618Z,10.07
2018-01-15T00:15:14.590Z,13.20
2018-01-15T00:17:42.284Z,10.77
2018-01-15T00:20:09.916Z,10.55
2018-01-15T00:22:37.584Z,11.25
2018-01-15T00:25:06.289Z,12.43
2018-01-15T00:27:34.875Z,7.90
2018-01-15T00:30:02.759Z,11.23
2018-01-15T00:32:30.411Z,10.45
2018-01-15T00:34:58.017Z,14.80
2018-01-15T00:37:25.597Z,11.15
2018-01-15T00:39:54.380Z,12.15
2018-01-15T00:42:22.299Z,10.20
2018-01-15T00:44:51.059Z,10.50
2018-01-15T00:47:19.124Z,11.57
2018-01-15T00:49:47.550Z,10.00
2018-01-15T00:52:15.158Z,12.00
2018-01-15T00:54:42.822Z,13.20
2018-01-15T00:57:10.602Z,13.57
2018-01-15T00:59:39.014Z,11.25
2018-01-15T01:02:06.943Z,14.25
2018-01-15T01:04:34.620Z,11.23
2018-01-15T01:07:02.322Z,12.60
2018-01-15T01:09:29.931Z,14.38
2018-01-15T01:11:58.712Z,11.70
2018-01-15T01:14:26.589Z,16.75
2018-01-15T01:16:55.450Z,12.50
2018-01-15T01:19:23.882Z,11.38
2018-01-15T01:21:51.913Z,10.02
2018-01-15T01:24:19.694Z,10.88
2018-01-15T01:26:48.205Z,13.15
2018-01-15T01:29:16.132Z,11.30
2018-01-15T01:31:44.297Z,14.23
2018-01-15T01:34:11.987Z,14.02
2018-01-15T01:36:39.897Z,11.80
2018-01-15T01:39:07.662Z,13.10
2018-01-15T01:41:37.436Z,9.63
2018-01-15T01:44:05.052Z,14.63
2018-01-15T01:46:32.754Z,10.65
2018-01-15T01:49:00.839Z,12.70
2018-01-15T01:51:28.415Z,12.07
2018-01-15T01:53:56.781Z,12.27
2018-01-15T01:56:25.048Z,9.95
2018-01-15T01:58:52.924Z,14.00
2018-01-15T02:01:21.351Z,12.00
2018-01-15T02:03:49.070Z,12.70
2018-01-15T02:06:17.794Z,11.63
2018-01-15T02:08:46.198Z,13.10
2018-01-15T02:11:14.045Z,12.82
2018-01-15T02:13:41.669Z,10.65
2018-01-15T02:16:09.428Z,7.87
2018-01-15T02:18:37.635Z,12.07
2018-01-15T02:21:06.598Z,10.90
2018-01-15T02:23:35.528Z,11.60
2018-01-15T02:26:04.048Z,11.10
2018-01-15T02:28:31.679Z,11.10
2018-01-15T02:31:04.029Z,11.38
2018-01-15T02:33:32.501Z,11.12
2018-01-15T02:36:00.359Z,14.27
2018-01-15T02:38:28.126Z,14.18
2018-01-15T02:40:57.437Z,10.65
2018-01-15T02:43:25.522Z,12.07
2018-01-15T02:45:53.175Z,11.38
2018-01-15T02:48:20.751Z,11.77
2018-01-15T02:50:49.188Z,8.85
2018-01-15T02:53:17.788Z,10.90
2018-01-15T02:55:45.953Z,20.30
2018-01-15T02:58:14.368Z,13.65
2018-01-15T03:00:42.209Z,10.88
2018-01-15T03:03:21.658Z,12.00
2018-01-15T03:05:50.555Z,11.63
2018-01-15T03:08:18.969Z,12.45
2018-01-15T03:10:46.843Z,11.88
2018-01-15T03:13:14.552Z,17.33
2018-01-15T03:15:42.768Z,13.30
2018-01-15T03:18:10.366Z,11.48
2018-01-15T03:20:37.979Z,8.27
2018-01-15T03:23:05.559Z,14.57
2018-01-15T03:25:33.406Z,14.50
2018-01-15T03:28:01.060Z,11.82
2018-01-15T03:30:29.006Z,14.48
2018-01-15T03:32:57.373Z,12.18
2018-01-15T03:35:25.050Z,14.50
2018-01-15T03:37:53.024Z,14.75
2018-01-15T03:40:20.698Z,11.48
2018-01-15T03:42:49.673Z,14.55
2018-01-15T03:45:17.589Z,13.55
2018-01-15T03:47:45.790Z,13.57
2018-01-15T03:50:14.392Z,11.82
2018-01-15T03:52:42.380Z,14.27
2018-01-15T03:55:10.007Z,14.57
2018-01-15T03:57:38.669Z,11.60
2018-01-15T04:00:07.527Z,13.40
2018-01-15T04:02:36.192Z,12.80
2018-01-15T04:05:03.875Z,12.65
2018-01-15T04:07:36.705Z,12.15
2018-01-15T04:10:04.703Z,14.75
2018-01-15T04:12:32.372Z,12.88
2018-01-15T04:15:00.243Z,11.75
2018-01-15T04:17:27.905Z,15.57
2018-01-15T04:20:09.956Z,12.37
2018-01-15T04:22:37.654Z,14.02
2018-01-15T04:25:05.633Z,11.00
2018-01-15T04:27:33.537Z,13.05
2018-01-15T04:30:01.196Z,11.98
2018-01-15T04:32:29.179Z,17.40
2018-01-15T04:34:57.664Z,16.23
2018-01-15T04:37:26.336Z,12.43
2018-01-15T04:39:54.179Z,16.83
2018-01-15T04:42:22.815Z,12.77
2018-01-15T04:44:51.467Z,14.60
2018-01-15T04:47:19.339Z,16.45
2018-01-15T04:49:51.543Z,10.90
2018-01-15T04:52:19.395Z,9.73
2018-01-15T04:54:47.419Z,9.23
2018-01-15T04:57:15.235Z,13.10
2018-01-15T04:59:42.882Z,15.18
2018-01-15T05:02:11.247Z,14.63
2018-01-15T05:04:38.859Z,13.20
2018-01-15T05:07:06.614Z,13.50
2018-01-15T05:09:35.053Z,15.27
2018-01-15T05:12:02.685Z,13.25
2018-01-15T05:14:31.015Z,13.82
2018-01-15T05:16:59.422Z,14.15
2018-01-15T05:19:28.155Z,13.70
2018-01-15T05:21:56.021Z,13.73
2018-01-15T05:24:23.919Z,15.45
2018-01-15T05:26:51.659Z,16.75
2018-01-15T05:29:20.813Z,14.77
2018-01-15T05:31:48.645Z,19.20
2018-01-15T05:34:16.583Z,13.38
2018-01-15T05:36:44.217Z,17.17
2018-01-15T05:39:12.214Z,17.92
2018-01-15T05:41:39.969Z,11.65
2018-01-15T05:44:07.999Z,14.13
2018-01-15T05:46:36.735Z,17.50
2018-01-15T05:49:04.317Z,13.35
2018-01-15T05:51:32.597Z,18.73
2018-01-15T05:54:03.857Z,14.32
2018-01-15T05:56:32.660Z,14.60
2018-01-15T05:59:00.533Z,13.48
2018-01-15T06:01:28.135Z,14.77
2018-01-15T06:03:55.913Z,16.60
2018-01-15T06:06:23.764Z,15.45
2018-01-15T06:08:51.592Z,12.20
2018-01-15T06:11:19.375Z,12.77
2018-01-15T06:13:46.991Z,14.68
2018-01-15T06:16:14.980Z,15.52
2018-01-15T06:18:42.900Z,16.37
2018-01-15T06:21:12.143Z,16.95
2018-01-15T06:23:40.623Z,14.13
2018-01-15T06:26:08.234Z,14.30
2018-01-15T06:28:36.671Z,15.02
2018-01-15T06:31:04.519Z,13.52
2018-01-15T06:33:32.095Z,17.12
2018-01-15T06:35:59.817Z,18.73
2018-01-15T06:38:27.460Z,15.27
2018-01-15T06:40:55.095Z,15.73
2018-01-15T06:43:23.252Z,14.40
2018-01-15T06:45:52.352Z,13.52
2018-01-15T06:48:22.239Z,17.60
2018-01-15T06:50:51.380Z,16.67
2018-01-15T06:53:20.641Z,19.15
2018-01-15T06:55:49.581Z,16.92
2018-01-15T06:58:19.333Z,17.27
2018-01-15T07:00:51.607Z,14.48
2018-01-15T07:03:21.498Z,14.63
2018-01-15T07:05:50.455Z,23.17
2018-01-15T07:08:20.620Z,15.50
2018-01-15T07:10:48.768Z,17.92
2018-01-15T07:13:16.338Z,13.38
2018-01-15T07:15:43.988Z,15.85
2018-01-15T07:18:12.958Z,15.30
2018-01-15T07:20:42.264Z,19.60
2018-01-15T07:23:10.622Z,18.42
2018-01-15T07:25:38.233Z,17.85
2018-01-15T07:28:06.447Z,16.08
2018-01-15T07:30:34.020Z,18.33
2018-01-15T07:33:03.006Z,15.50
2018-01-15T07:35:31.342Z,19.17
2018-01-15T07:37:59.096Z,19.42
2018-01-15T07:40:27.100Z,13.68
2018-01-15T07:42:54.821Z,19.62
2018-01-15T07:45:22.741Z,15.32
2018-01-15T07:47:51.893Z,18.67
2018-01-15T07:50:20.582Z,14.35
2018-01-15T07:52:50.699Z,19.60
2018-01-15T07:55:19.405Z,19.85
2018-01-15T07:57:47.366Z,18.83
2018-01-15T08:00:15.157Z,16.90
2018-01-15T08:02:43.035Z,22.45
2018-01-15T08:05:10.973Z,21.45
2018-01-15T08:07:39.191Z,20.27
2018-01-15T08:10:07.014Z,24.23
2018-01-15T08:12:34.670Z,18.45
2018-01-15T08:15:02.500Z,18.50
2018-01-15T08:17:30.281Z,13.62
2018-01-15T08:19:58.827Z,14.63
2018-01-15T08:22:26.524Z,18.17
2018-01-15T08:24:54.885Z,19.10
2018-01-15T08:27:23.033Z,15.70
2018-01-15T08:29:50.910Z,20.75
2018-01-15T08:32:18.740Z,21.70
2018-01-15T08:34:46.521Z,20.37
2018-01-15T08:37:14.131Z,18.15
2018-01-15T08:39:42.309Z,16.20
2018-01-15T08:42:10.345Z,19.50
2018-01-15T08:44:38.279Z,20.23
2018-01-15T08:47:06.347Z,20.08
2018-01-15T08:49:34.896Z,19.58
2018-01-15T08:52:03.662Z,23.50
2018-01-15T08:54:31.944Z,20.33
2018-01-15T08:56:59.973Z,21.67
2018-01-15T08:59:27.838Z,20.83
2018-01-15T09:01:56.217Z,20.02
2018-01-15T09:04:24.249Z,19.62
2018-01-15T09:06:51.843Z,18.42
2018-01-15T09:09:19.604Z,19.45
2018-01-15T09:11:47.896Z,20.60
2018-01-15T09:14:15.916Z,18.10
2018-01-15T09:16:43.577Z,24.27
2018-01-15T09:19:11.249Z,19.45
2018-01-15T09:21:38.835Z,23.38
2018-01-15T09:24:06.768Z,22.77
2018-01-15T09:26:34.428Z,21.17
2018-01-15T09:29:03.959Z,21.27
2018-01-15T09:31:31.957Z,21.42
2018-01-15T09:33:59.673Z,23.73
2018-01-15T09:36:27.467Z,20.00
2018-01-15T09:38:55.103Z,17.50
2018-01-15T09:41:23.178Z,19.67
2018-01-15T09:43:50.768Z,20.65
2018-01-15T09:46:19.420Z,19.55
2018-01-15T09:48:47.401Z,20.02
2018-01-15T09:51:15.297Z,19.95
2018-01-15T09:53:43.185Z,17.33
2018-01-15T09:56:11.068Z,23.10
2018-01-15T09:58:38.748Z,20.77
2018-01-15T10:01:07.032Z,20.67
2018-01-15T10:03:35.105Z,20.35
2018-01-15T10:06:03.827Z,20.10
2018-01-15T10:08:32.472Z,22.60
2018-01-15T10:11:00.142Z,22.17
2018-01-15T10:13:29.072Z,18.93
2018-01-15T10:15:57.467Z,19.62
2018-01-15T10:18:25.045Z,20.17
2018-01-15T10:20:53.041Z,21.70
2018-01-15T10:23:20.722Z,21.00
2018-01-15T10:25:48.618Z,15.10
2018-01-15T10:28:17.400Z,19.70
2018-01-15T10:30:44.990Z,18.27
2018-01-15T10:33:13.199Z,20.57
2018-01-15T10:35:41.274Z,16.10
2018-01-15T10:38:09.415Z,19.70
2018-01-15T10:40:37.316Z,21.10
2018-01-15T10:43:05.902Z,19.30
2018-01-15T10:45:33.998Z,20.20
2018-01-15T10:48:01.843Z,21.43
2018-01-15T10:50:29.582Z,22.10
2018-01-15T10:52:58.151Z,18.47
2018-01-15T10:55:26.189Z,22.00
2018-01-15T10:57:53.775Z,16.83
2018-01-15T11:00:27.891Z,19.10
2018-01-15T11:02:55.541Z,19.97
2018-01-15T11:05:23.677Z,20.00
2018-01-15T11:07:51.686Z,18.93
2018-01-15T11:10:20.127Z,20.43
2018-01-15T11:12:48.283Z,20.50
2018-01-15T11:15:16.280Z,16.17
2018-01-15T11:17:44.447Z,17.00
2018-01-15T11:20:13.383Z,22.53
2018-01-15T11:22:42.048Z,16.03
2018-01-15T11:25:09.647Z,23.03
2018-01-15T11:27:37.239Z,16.80
2018-01-15T11:30:05.207Z,20.53
2018-01-15T11:32:34.306Z,14.63
2018-01-15T11:35:03.515Z,22.57
2018-01-15T11:37:31.138Z,19.27
2018-01-15T11:40:00.381Z,20.80
2018-01-15T11:42:27.955Z,19.80
2018-01-15T11:44:56.930Z,17.57
2018-01-15T11:47:26.282Z,21.33
2018-01-15T11:49:55.315Z,19.77
2018-01-15T11:52:24.484Z,18.07
2018-01-15T11:54:53.570Z,21.93
2018-01-15T11:57:23.914Z,18.40
2018-01-15T11:59:52.934Z,23.77
2018-01-15T12:02:21.968Z,19.00
2018-01-15T12:04:49.904Z,26.47
2018-01-15T12:07:18.588Z,33.70
2018-01-15T12:09:46.419Z,23.80
2018-01-15T12:12:15.855Z,22.37
2018-01-15T12:14:45.108Z,20.10
2018-01-15T12:17:14.251Z,21.50
2018-01-15T12:19:43.489Z,20.33
2018-01-15T12:22:13.009Z,23.37
2018-01-15T12:24:43.051Z,28.27
2018-01-15T12:27:13.033Z,22.50
2018-01-15T12:29:42.659Z,21.47
2018-01-15T12:32:11.859Z,22.57
2018-01-15T12:34:40.785Z,15.10
2018-01-15T12:37:09.885Z,22.03
2018-01-15T12:39:38.944Z,24.23
2018-01-15T12:42:08.037Z,17.17
2018-01-15T12:44:37.166Z,18.17
2018-01-15T12:47:06.586Z,20.20
2018-01-15T12:49:35.559Z,17.00
2018-01-15T12:52:04.947Z,26.20
2018-01-15T12:54:34.029Z,17.60
2018-01-15T12:57:03.359Z,22.30
2018-01-15T12:59:33.087Z,21.20
2018-01-15T13:02:02.014Z,22.27
2018-01-15T13:04:30.940Z,16.83
2018-01-15T13:07:00.385Z,19.80
2018-01-15T13:09:29.443Z,20.40
2018-01-15T13:11:58.400Z,18.50
2018-01-15T13:14:28.487Z,20.77
2018-01-15T13:16:57.771Z,19.80
2018-01-15T13:19:26.815Z,21.00
2018-01-15T13:21:56.385Z,18.67
2018-01-15T13:24:25.506Z,17.70
2018-01-15T13:26:54.855Z,20.60
2018-01-15T13:29:23.976Z,20.90
2018-01-15T13:31:53.414Z,20.03
2018-01-15T13:34:22.534Z,18.87
2018-01-15T13:36:51.744Z,17.07
2018-01-15T13:39:20.741Z,19.03
2018-01-15T13:41:49.987Z,21.50
2018-01-15T13:44:19.628Z,22.37
2018-01-15T13:46:49.095Z,18.37
2018-01-15T13:49:18.323Z,23.10
2018-01-15T13:51:47.422Z,21.90
2018-01-15T13:54:16.694Z,19.17
2018-01-15T13:56:45.693Z,21.80
2018-01-15T13:59:14.626Z,16.47
2018-01-15T14:01:43.612Z,18.43
2018-01-15T14:04:13.242Z,18.07
2018-01-15T14:06:42.191Z,25.03
2018-01-15T14:09:12.200Z,17.47
2018-01-15T14:11:41.653Z,19.07
2018-01-15T14:14:10.662Z,18.63
2018-01-15T14:16:39.845Z,17.50
2018-01-15T14:19:09.236Z,19.80
2018-01-15T14:21:39.540Z,18.70
2018-01-15T14:24:08.867Z,17.77
2018-01-15T14:26:38.586Z,17.17
2018-01-15T14:29:07.940Z,16.70
2018-01-15T14:31:36.968Z,18.93
2018-01-15T14:34:06.317Z,18.67
2018-01-15T14:36:35.364Z,23.30
2018-01-15T14:39:04.606Z,16.73
2018-01-15T14:41:33.537Z,17.37
2018-01-15T14:44:02.675Z,16.10
2018-01-15T14:46:31.638Z,19.30
2018-01-15T14:49:00.666Z,18.37
2018-01-15T14:51:29.989Z,18.30
2018-01-15T14:53:59.062Z,21.63
2018-01-15T14:56:29.511Z,24.03
2018-01-15T14:58:59.516Z,20.87
2018-01-15T15:01:29.802Z,23.60
2018-01-15T15:03:58.862Z,19.20
2018-01-15T15:06:28.972Z,19.77
2018-01-15T15:08:57.858Z,27.83
2018-01-15T15:11:27.159Z,18.60
2018-01-15T15:13:56.202Z,19.97
2018-01-15T15:16:25.737Z,19.93
2018-01-15T15:18:54.801Z,20.67
2018-01-15T15:21:23.750Z,21.10
2018-01-15T15:23:53.408Z,23.50
2018-01-15T15:26:22.585Z,17.43
2018-01-15T15:28:51.695Z,21.83
2018-01-15T15:31:20.641Z,16.87
2018-01-15T15:33:50.614Z,17.07
2018-01-15T15:36:19.557Z,20.27
2018-01-15T15:38:48.644Z,18.90
2018-01-15T15:41:17.668Z,22.90
2018-01-15T15:43:47.238Z,17.10
2018-01-15T15:46:16.307Z,19.60
2018-01-15T15:48:45.601Z,21.27
2018-01-15T15:51:15.304Z,18.83
2018-01-15T15:53:44.295Z,22.53
2018-01-15T15:56:13.287Z,24.03
2018-01-15T15:58:42.237Z,20.13
2018-01-15T16:01:11.670Z,27.00
2018-01-15T16:03:40.657Z,27.43
2018-01-15T16:06:09.578Z,24.93
2018-01-15T16:08:38.808Z,22.97
2018-01-15T16:11:07.753Z,20.60
2018-01-15T16:13:36.894Z,26.33
2018-01-15T16:16:06.619Z,23.00
2018-01-15T16:18:35.741Z,24.60
2018-01-15T16:21:04.878Z,29.33
2018-01-15T16:23:34.812Z,19.20
2018-01-15T16:26:03.963Z,20.40
2018-01-15T16:28:33.013Z,22.10
2018-01-15T16:31:01.930Z,19.47
2018-01-15T16:33:30.981Z,18.30
2018-01-15T16:36:00.391Z,17.70
2018-01-15T16:38:29.594Z,21.73
2018-01-15T16:40:58.652Z,24.93
2018-01-15T16:43:28.191Z,21.17
2018-01-15T16:45:57.239Z,24.80
2018-01-15T16:48:26.220Z,23.33
2018-01-15T16:50:56.243Z,21.13
2018-01-15T16:53:26.040Z,19.73
2018-01-15T16:55:55.088Z,23.60
2018-01-15T16:58:24.155Z,21.70
2018-01-15T17:00:53.337Z,21.53
2018-01-15T17:03:22.552Z,26.03
2018-01-15T17:05:51.473Z,20.30
2018-01-15T17:08:20.418Z,20.20
2018-01-15T17:10:49.361Z,21.13
2018-01-15T17:13:18.358Z,21.67
2018-01-15T17:15:47.332Z,28.00
2018-01-15T17:18:16.642Z,19.47
2018-01-15T17:20:45.796Z,21.77
2018-01-15T17:23:15.021Z,23.20
2018-01-15T17:25:43.972Z,23.37
2018-01-15T17:28:13.290Z,20.47
2018-01-15T17:30:42.340Z,19.53
2018-01-15T17:33:11.631Z,24.70
2018-01-15T17:35:41.116Z,21.60
2018-01-15T17:38:10.214Z,22.70
2018-01-15T17:40:39.207Z,16.77
2018-01-15T17:43:08.226Z,19.70
2018-01-15T17:45:37.370Z,23.07
2018-01-15T17:48:06.350Z,21.87
2018-01-15T17:50:35.302Z,21.90
2018-01-15T17:53:04.739Z,19.40
2018-01-15T17:55:33.748Z,19.47
2018-01-15T17:58:02.853Z,20.37
2018-01-15T18:00:32.030Z,19.23
2018-01-15T18:03:01.818Z,24.30
2018-01-15T18:05:30.956Z,20.00
2018-01-15T18:08:00.404Z,17.30
2018-01-15T18:10:29.484Z,21.40
2018-01-15T18:12:58.475Z,18.10
2018-01-15T18:15:27.525Z,21.10
2018-01-15T18:17:57.020Z,18.27
2018-01-15T18:20:26.030Z,21.60
2018-01-15T18:22:54.966Z,21.97
2018-01-15T18:25:24.305Z,20.53
2018-01-15T18:27:53.572Z,21.10
2018-01-15T18:30:22.698Z,21.27
2018-01-15T18:32:52.052Z,20.83
2018-01-15T18:35:20.970Z,22.00
2018-01-15T18:37:49.990Z,24.97
2018-01-15T18:40:19.672Z,17.83
2018-01-15T18:42:49.054Z,23.40
2018-01-15T18:45:18.010Z,21.40
2018-01-15T18:47:47.575Z,19.60
2018-01-15T18:50:17.739Z,21.57
2018-01-15T18:52:47.067Z,20.10
2018-01-15T18:55:18.915Z,17.77
2018-01-15T18:57:47.839Z,22.27
2018-01-15T19:00:20.049Z,21.03
2018-01-15T19:02:51.187Z,27.47
2018-01-15T19:05:20.438Z,19.83
2018-01-15T19:07:50.377Z,19.03
2018-01-15T19:10:19.673Z,18.93
2018-01-15T19:12:48.850Z,19.73
2018-01-15T19:15:18.301Z,24.43
2018-01-15T19:17:48.311Z,22.33
2018-01-15T19:20:17.615Z,19.47
2018-01-15T19:22:48.142Z,20.43
2018-01-15T19:25:17.643Z,22.43
2018-01-15T19:27:46.589Z,23.63
2018-01-15T19:30:15.818Z,23.90
2018-01-15T19:32:44.835Z,23.10
2018-01-15T19:35:14.603Z,18.30
2018-01-15T19:37:47.350Z,19.40
2018-01-15T19:40:16.653Z,18.10
2018-01-15T19:42:46.266Z,21.80
2018-01-15T19:45:15.629Z,22.17
2018-01-15T19:47:45.351Z,17.57
2018-01-15T19:50:20.384Z,21.50
2018-01-15T19:52:55.616Z,18.97
2018-01-15T19:55:24.754Z,14.30
2018-01-15T19:57:59.818Z,17.13
2018-01-15T20:00:28.874Z,17.97
2018-01-15T20:02:58.466Z,18.97
2018-01-15T20:05:33.817Z,18.27
2018-01-15T20:08:08.630Z,25.33
2018-01-15T20:10:43.672Z,17.43
2018-01-15T20:13:12.878Z,21.27
2018-01-15T20:15:42.597Z,19.10
2018-01-15T20:18:11.756Z,17.90
2018-01-15T20:20:41.816Z,23.50
2018-01-15T20:23:11.371Z,15.67
2018-01-15T20:25:40.913Z,18.20
2018-01-15T20:28:10.093Z,25.27
2018-01-15T20:30:39.911Z,16.77
2018-01-15T20:33:09.061Z,20.40
2018-01-15T20:35:38.809Z,21.57
2018-01-15T20:38:07.839Z,23.13
2018-01-15T20:40:37.157Z,15.47
2018-01-15T20:43:06.328Z,19.37
2018-01-15T20:45:35.568Z,27.50
2018-01-15T20:48:04.688Z,21.93
2018-01-15T20:50:33.764Z,16.90
2018-01-15T20:53:02.807Z,22.43
2018-01-15T20:55:32.167Z,18.47
2018-01-15T20:58:01.180Z,17.10
2018-01-15T21:00:30.311Z,18.00
2018-01-15T21:02:59.982Z,20.43
2018-01-15T21:05:29.761Z,20.83
2018-01-15T21:07:58.821Z,22.13
2018-01-15T21:10:27.819Z,19.03
2018-01-15T21:12:56.815Z,21.47
2018-01-15T21:15:26.221Z,22.93
2018-01-15T21:17:55.183Z,20.43
2018-01-15T21:20:24.101Z,16.60
2018-01-15T21:22:53.526Z,19.90
2018-01-15T21:25:21.218Z,16.73
2018-01-15T21:27:49.857Z,21.90
2018-01-15T21:30:17.541Z,22.20
2018-01-15T21:32:45.785Z,17.57
2018-01-15T21:35:13.424Z,16.93
2018-01-15T21:37:41.015Z,19.70
2018-01-15T21:40:08.805Z,22.23
2018-01-15T21:42:36.383Z,16.60
2018-01-15T21:45:04.749Z,16.00
2018-01-15T21:47:32.356Z,19.63
2018-01-15T21:50:00.305Z,18.60
2018-01-15T21:52:28.151Z,17.13
2018-01-15T21:54:55.782Z,17.87
2018-01-15T21:57:23.493Z,17.30
2018-01-15T21:59:51.081Z,24.30
2018-01-15T22:02:18.688Z,18.27
2018-01-15T22:04:46.653Z,16.13
2018-01-15T22:07:14.518Z,16.47
2018-01-15T22:09:42.154Z,18.53
2018-01-15T22:12:09.747Z,14.80
2018-01-15T22:14:37.335Z,17.50
2018-01-15T22:17:05.695Z,20.23
2018-01-15T22:19:33.262Z,14.60
2018-01-15T22:22:01.720Z,14.67
2018-01-15T22:24:29.800Z,15.00
2018-01-15T22:26:58.693Z,13.33
2018-01-15T22:29:26.496Z,15.33
2018-01-15T22:31:54.204Z,12.20
2018-01-15T22:34:21.787Z,13.27
2018-01-15T22:36:49.491Z,16.13
2018-01-15T22:39:17.142Z,17.10
2018-01-15T22:41:45.074Z,13.37
2018-01-15T22:44:12.938Z,11.97
2018-01-15T22:46:40.582Z,13.97
2018-01-15T22:49:08.163Z,12.40
2018-01-15T22:51:39.210Z,12.63
2018-01-15T22:54:07.143Z,14.50
2018-01-15T22:56:34.936Z,10.10
2018-01-15T22:59:02.801Z,17.33
2018-01-15T23:01:30.411Z,12.30
2018-01-15T23:03:58.244Z,12.93
2018-01-15T23:06:25.871Z,13.00
2018-01-15T23:08:53.475Z,11.20
2018-01-15T23:11:21.208Z,8.87
2018-01-15T23:13:48.818Z,12.03
2018-01-15T23:16:17.371Z,11.90
2018-01-15T23:18:45.196Z,12.37
2018-01-15T23:21:13.110Z,10.87
2018-01-15T23:23:40.731Z,9.67
2018-01-15T23:26:09.028Z,10.00
2018-01-15T23:28:36.888Z,17.97
2018-01-15T23:31:05.205Z,13.33
2018-01-15T23:33:33.043Z,9.60
2018-01-15T23:36:00.679Z,14.03
2018-01-15T23:38:28.294Z,10.70
2018-01-15T23:40:57.678Z,14.73
2018-01-15T23:43:25.449Z,9.53
2018-01-15T23:45:53.363Z,10.10
2018-01-15T23:48:20.964Z,8.50
2018-01-15T23:53:21.572Z,10.87
2018-01-15T23:55:49.146Z,9.80
2018-01-15T23:58:16.727Z,5.67
